Rumford, Maine
Current Conditions -  °F | °C
As of 10:52 PM on Saturday 25 Oct 2014 (Local Time) from KBML Reporting Station
Light Rain Light Rain  
Wind Chill: 45°   Ceiling: 4900
Heat Index: 47°   Visibility: 8mi
Dew Point: 45°   Wind: 5mph
Humidity: 93%   Direction: 120°ESE
Pressure: 29.46"   Gusts: NA
Location:  44.55°N, 70.55°W
Report Text: KBML 260252Z AUTO 12004KT 8SM -RA SCT040 OVC049 08/07 A2946 RMK AO2 SLP979 P0010 60017 T00830072 58016
Loading
Personal Weather Stations






























Interactive Weather Map
Tropical Storm Tracking
New forecast layout! Learn more

10-Day Weather Forecast

Advertisements
Track Severe Weather on mobile